sensor_id;sensor_type;location;lat;lon;timestamp;pressure;altitude;pressure_sealevel;temperature;humidity
967;BME280;56108;48.730;9.304;2022-10-16T00:00:45;97503.59;;;15.02;100.00
967;BME280;56108;48.730;9.304;2022-10-16T00:02:54;97504.44;;;15.02;100.00
967;BME280;56108;48.730;9.304;2022-10-16T00:05:02;97499.94;;;14.93;100.00
967;BME280;56108;48.730;9.304;2022-10-16T00:07:11;97504.97;;;14.86;100.00
967;BME280;56108;48.730;9.304;2022-10-16T00:09:19;97499.16;;;14.81;100.00
967;BME280;56108;48.730;9.304;2022-10-16T00:11:31;97500.72;;;14.84;100.00
967;BME280;56108;48.730;9.304;2022-10-16T00:13:42;97501.72;;;14.83;100.00
967;BME280;56108;48.730;9.304;2022-10-16T00:15:51;97495.38;;;14.84;100.00
967;BME280;56108;48.730;9.304;2022-10-16T00:18:03;97498.75;;;14.86;100.00
967;BME280;56108;48.730;9.304;2022-10-16T00:20:11;97504.50;;;14.81;100.00
967;BME280;56108;48.730;9.304;2022-10-16T00:22:20;97498.00;;;14.74;100.00
967;BME280;56108;48.730;9.304;2022-10-16T00:24:29;97502.25;;;14.77;100.00
967;BME280;56108;48.730;9.304;2022-10-16T00:26:40;97503.63;;;14.71;100.00
967;BME280;56108;48.730;9.304;2022-10-16T00:28:50;97500.38;;;14.68;100.00
967;BME280;56108;48.730;9.304;2022-10-16T00:30:59;97497.38;;;14.61;100.00
967;BME280;56108;48.730;9.304;2022-10-16T00:33:09;97502.78;;;14.71;100.00
967;BME280;56108;48.730;9.304;2022-10-16T00:35:18;97504.03;;;14.67;100.00
967;BME280;56108;48.730;9.304;2022-10-16T00:37:26;97500.50;;;14.66;100.00
967;BME280;56108;48.730;9.304;2022-10-16T00:39:34;97498.09;;;14.63;100.00
967;BME280;56108;48.730;9.304;2022-10-16T00:41:46;97494.41;;;14.54;100.00
967;BME280;56108;48.730;9.304;2022-10-16T00:43:56;97488.19;;;14.54;100.00
967;BME280;56108;48.730;9.304;2022-10-16T00:46:12;97486.38;;;14.54;100.00
967;BME280;56108;48.730;9.304;2022-10-16T00:48:22;97480.75;;;14.57;100.00
967;BME280;56108;48.730;9.304;2022-10-16T00:50:33;97476.69;;;14.63;100.00
967;BME280;56108;48.730;9.304;2022-10-16T00:52:46;97486.38;;;14.54;100.00
967;BME280;56108;48.730;9.304;2022-10-16T00:54:55;97489.31;;;14.51;100.00
967;BME280;56108;48.730;9.304;2022-10-16T00:57:07;97479.94;;;14.46;100.00
967;BME280;56108;48.730;9.304;2022-10-16T00:59:19;97475.97;;;14.40;100.00
967;BME280;56108;48.730;9.304;2022-10-16T01:01:29;97462.13;;;14.35;100.00
967;BME280;56108;48.730;9.304;2022-10-16T01:03:38;97466.91;;;14.31;100.00
967;BME280;56108;48.730;9.304;2022-10-16T01:05:51;97468.59;;;14.32;100.00
967;BME280;56108;48.730;9.304;2022-10-16T01:08:08;97475.66;;;14.33;100.00
967;BME280;56108;48.730;9.304;2022-10-16T01:10:27;97484.66;;;14.32;100.00
967;BME280;56108;48.730;9.304;2022-10-16T01:12:46;97487.88;;;14.26;100.00
967;BME280;56108;48.730;9.304;2022-10-16T01:15:01;97477.56;;;14.22;100.00
967;BME280;56108;48.730;9.304;2022-10-16T01:17:13;97486.38;;;14.13;100.00
967;BME280;56108;48.730;9.304;2022-10-16T01:19:38;97480.88;;;14.14;100.00
967;BME280;56108;48.730;9.304;2022-10-16T01:21:51;97487.69;;;14.18;100.00
967;BME280;56108;48.730;9.304;2022-10-16T01:24:06;97478.81;;;14.18;100.00
967;BME280;56108;48.730;9.304;2022-10-16T01:26:28;97492.06;;;14.19;100.00
967;BME280;56108;48.730;9.304;2022-10-16T01:28:47;97500.81;;;14.21;100.00
967;BME280;56108;48.730;9.304;2022-10-16T01:30:58;97499.56;;;14.25;100.00
967;BME280;56108;48.730;9.304;2022-10-16T01:33:14;97482.63;;;14.25;100.00
967;BME280;56108;48.730;9.304;2022-10-16T01:35:27;97475.59;;;14.24;100.00
967;BME280;56108;48.730;9.304;2022-10-16T01:37:41;97467.13;;;14.19;100.00
967;BME280;56108;48.730;9.304;2022-10-16T01:39:54;97477.03;;;14.28;100.00
967;BME280;56108;48.730;9.304;2022-10-16T01:42:08;97481.72;;;14.15;100.00
967;BME280;56108;48.730;9.304;2022-10-16T01:44:24;97483.47;;;14.16;100.00
967;BME280;56108;48.730;9.304;2022-10-16T01:46:36;97470.78;;;14.18;100.00
967;BME280;56108;48.730;9.304;2022-10-16T01:48:45;97455.13;;;14.13;100.00
967;BME280;56108;48.730;9.304;2022-10-16T01:50:57;97452.13;;;14.06;100.00
967;BME280;56108;48.730;9.304;2022-10-16T01:53:10;97449.84;;;14.02;100.00
967;BME280;56108;48.730;9.304;2022-10-16T01:55:23;97443.66;;;14.01;100.00
967;BME280;56108;48.730;9.304;2022-10-16T01:57:36;97447.03;;;14.03;100.00
967;BME280;56108;48.730;9.304;2022-10-16T01:59:56;97445.63;;;13.99;100.00
967;BME280;56108;48.730;9.304;2022-10-16T02:02:17;97447.88;;;14.04;100.00
967;BME280;56108;48.730;9.304;2022-10-16T02:04:31;97446.63;;;14.08;100.00
967;BME280;56108;48.730;9.304;2022-10-16T02:06:41;97442.13;;;14.08;100.00
967;BME280;56108;48.730;9.304;2022-10-16T02:08:49;97443.56;;;14.13;100.00
967;BME280;56108;48.730;9.304;2022-10-16T02:10:59;97447.94;;;14.14;100.00
967;BME280;56108;48.730;9.304;2022-10-16T02:13:15;97443.72;;;14.11;100.00
967;BME280;56108;48.730;9.304;2022-10-16T02:15:28;97453.28;;;14.14;100.00
967;BME280;56108;48.730;9.304;2022-10-16T02:17:36;97451.91;;;14.19;100.00
967;BME280;56108;48.730;9.304;2022-10-16T02:19:46;97454.72;;;14.18;100.00
967;BME280;56108;48.730;9.304;2022-10-16T02:21:57;97453.28;;;14.14;100.00
967;BME280;56108;48.730;9.304;2022-10-16T02:24:09;97460.06;;;14.18;100.00
967;BME280;56108;48.730;9.304;2022-10-16T02:26:26;97469.53;;;14.22;100.00
967;BME280;56108;48.730;9.304;2022-10-16T02:28:40;97479.13;;;14.24;100.00
967;BME280;56108;48.730;9.304;2022-10-16T02:30:56;97474.22;;;14.29;100.00
967;BME280;56108;48.730;9.304;2022-10-16T02:33:09;97469.00;;;14.28;100.00
967;BME280;56108;48.730;9.304;2022-10-16T02:35:20;97471.38;;;14.21;100.00
967;BME280;56108;48.730;9.304;2022-10-16T02:37:29;97472.06;;;14.23;100.00
967;BME280;56108;48.730;9.304;2022-10-16T02:39:39;97463.06;;;14.24;100.00
967;BME280;56108;48.730;9.304;2022-10-16T02:41:48;97456.69;;;14.16;100.00
967;BME280;56108;48.730;9.304;2022-10-16T02:43:57;97445.53;;;14.10;100.00
967;BME280;56108;48.730;9.304;2022-10-16T02:46:08;97439.84;;;14.04;100.00
967;BME280;56108;48.730;9.304;2022-10-16T02:48:17;97436.66;;;14.10;100.00
967;BME280;56108;48.730;9.304;2022-10-16T02:50:25;97441.47;;;14.16;100.00
967;BME280;56108;48.730;9.304;2022-10-16T02:52:34;97450.88;;;14.10;100.00
967;BME280;56108;48.730;9.304;2022-10-16T02:54:42;97448.00;;;14.02;100.00
967;BME280;56108;48.730;9.304;2022-10-16T02:56:50;97463.34;;;14.00;100.00
967;BME280;56108;48.730;9.304;2022-10-16T02:58:59;97458.56;;;14.04;100.00
967;BME280;56108;48.730;9.304;2022-10-16T03:01:10;97457.41;;;13.97;100.00
967;BME280;56108;48.730;9.304;2022-10-16T03:03:21;97458.25;;;13.97;100.00
967;BME280;56108;48.730;9.304;2022-10-16T03:05:30;97459.38;;;13.95;100.00
967;BME280;56108;48.730;9.304;2022-10-16T03:07:39;97461.31;;;13.93;100.00
967;BME280;56108;48.730;9.304;2022-10-16T03:09:47;97468.72;;;14.00;100.00
967;BME280;56108;48.730;9.304;2022-10-16T03:11:56;97464.84;;;13.93;100.00
967;BME280;56108;48.730;9.304;2022-10-16T03:14:05;97465.81;;;13.92;100.00
967;BME280;56108;48.730;9.304;2022-10-16T03:16:16;97465.13;;;13.90;100.00
967;BME280;56108;48.730;9.304;2022-10-16T03:18:24;97460.88;;;13.88;100.00
967;BME280;56108;48.730;9.304;2022-10-16T03:20:33;97461.72;;;13.88;100.00
967;BME280;56108;48.730;9.304;2022-10-16T03:22:42;97464.38;;;13.88;100.00
967;BME280;56108;48.730;9.304;2022-10-16T03:24:51;97452.84;;;13.88;100.00
967;BME280;56108;48.730;9.304;2022-10-16T03:27:00;97461.59;;;13.90;100.00
967;BME280;56108;48.730;9.304;2022-10-16T03:29:08;97465.50;;;13.86;100.00
967;BME280;56108;48.730;9.304;2022-10-16T03:31:19;97465.38;;;13.87;100.00
967;BME280;56108;48.730;9.304;2022-10-16T03:33:27;97461.84;;;13.87;100.00
967;BME280;56108;48.730;9.304;2022-10-16T03:35:36;97465.38;;;13.87;100.00
967;BME280;56108;48.730;9.304;2022-10-16T03:37:45;97468.50;;;13.92;100.00
967;BME280;56108;48.730;9.304;2022-10-16T03:39:53;97462.44;;;13.90;100.00
967;BME280;56108;48.730;9.304;2022-10-16T03:42:02;97462.97;;;13.84;100.00
967;BME280;56108;48.730;9.304;2022-10-16T03:44:10;97463.53;;;13.88;100.00
967;BME280;56108;48.730;9.304;2022-10-16T03:46:21;97471.19;;;13.92;100.00
967;BME280;56108;48.730;9.304;2022-10-16T03:48:30;97478.50;;;13.90;100.00
967;BME280;56108;48.730;9.304;2022-10-16T03:50:38;97473.28;;;13.89;100.00
967;BME280;56108;48.730;9.304;2022-10-16T03:52:47;97480.44;;;13.88;100.00
967;BME280;56108;48.730;9.304;2022-10-16T03:54:55;97475.22;;;13.87;100.00
967;BME280;56108;48.730;9.304;2022-10-16T03:57:04;97475.97;;;13.89;100.00
967;BME280;56108;48.730;9.304;2022-10-16T03:59:12;97477.25;;;13.94;100.00
967;BME280;56108;48.730;9.304;2022-10-16T04:01:24;97480.31;;;13.90;100.00
967;BME280;56108;48.730;9.304;2022-10-16T04:03:32;97492.97;;;13.88;100.00
967;BME280;56108;48.730;9.304;2022-10-16T04:05:40;97496.63;;;13.87;100.00
967;BME280;56108;48.730;9.304;2022-10-16T04:07:48;97489.13;;;13.80;100.00
967;BME280;56108;48.730;9.304;2022-10-16T04:09:57;97484.47;;;13.82;100.00
967;BME280;56108;48.730;9.304;2022-10-16T04:12:05;97483.53;;;13.83;100.00
967;BME280;56108;48.730;9.304;2022-10-16T04:14:14;97481.41;;;13.87;100.00
967;BME280;56108;48.730;9.304;2022-10-16T04:16:24;97483.09;;;13.88;100.00
967;BME280;56108;48.730;9.304;2022-10-16T04:18:33;97483.00;;;13.90;100.00
967;BME280;56108;48.730;9.304;2022-10-16T04:20:41;97493.44;;;13.93;100.00
967;BME280;56108;48.730;9.304;2022-10-16T04:22:49;97492.44;;;13.94;100.00
967;BME280;56108;48.730;9.304;2022-10-16T04:24:58;97501.34;;;13.94;100.00
967;BME280;56108;48.730;9.304;2022-10-16T04:27:06;97496.94;;;13.93;100.00
967;BME280;56108;48.730;9.304;2022-10-16T04:29:15;97499.50;;;13.95;100.00
967;BME280;56108;48.730;9.304;2022-10-16T04:31:29;97495.41;;;13.91;100.00
967;BME280;56108;48.730;9.304;2022-10-16T04:33:38;97497.75;;;13.84;100.00
967;BME280;56108;48.730;9.304;2022-10-16T04:35:46;97495.91;;;13.84;100.00
967;BME280;56108;48.730;9.304;2022-10-16T04:37:57;97486.06;;;13.85;100.00
967;BME280;56108;48.730;9.304;2022-10-16T04:40:07;97488.59;;;13.87;100.00
967;BME280;56108;48.730;9.304;2022-10-16T04:42:15;97487.69;;;13.76;100.00
967;BME280;56108;48.730;9.304;2022-10-16T04:44:24;97488.06;;;13.72;100.00
967;BME280;56108;48.730;9.304;2022-10-16T04:46:35;97474.69;;;13.72;100.00
967;BME280;56108;48.730;9.304;2022-10-16T04:48:43;97479.06;;;13.73;100.00
967;BME280;56108;48.730;9.304;2022-10-16T04:50:51;97492.69;;;13.70;100.00
967;BME280;56108;48.730;9.304;2022-10-16T04:53:00;97488.28;;;13.80;100.00
967;BME280;56108;48.730;9.304;2022-10-16T04:55:08;97488.53;;;13.77;100.00
967;BME280;56108;48.730;9.304;2022-10-16T04:57:16;97499.69;;;13.82;100.00
967;BME280;56108;48.730;9.304;2022-10-16T04:59:25;97498.00;;;13.81;100.00
967;BME280;56108;48.730;9.304;2022-10-16T05:01:35;97503.81;;;13.86;100.00
967;BME280;56108;48.730;9.304;2022-10-16T05:03:44;97508.91;;;13.89;100.00
967;BME280;56108;48.730;9.304;2022-10-16T05:05:52;97515.34;;;13.87;100.00
967;BME280;56108;48.730;9.304;2022-10-16T05:08:01;97514.38;;;13.88;100.00
967;BME280;56108;48.730;9.304;2022-10-16T05:10:09;97520.47;;;13.90;100.00
967;BME280;56108;48.730;9.304;2022-10-16T05:12:18;97527.50;;;13.91;100.00
967;BME280;56108;48.730;9.304;2022-10-16T05:14:26;97526.66;;;13.90;100.00
967;BME280;56108;48.730;9.304;2022-10-16T05:16:38;97526.31;;;13.83;100.00
967;BME280;56108;48.730;9.304;2022-10-16T05:18:46;97526.06;;;13.87;100.00
967;BME280;56108;48.730;9.304;2022-10-16T05:21:00;97523.91;;;13.80;100.00
967;BME280;56108;48.730;9.304;2022-10-16T05:23:08;97520.38;;;13.80;100.00
967;BME280;56108;48.730;9.304;2022-10-16T05:25:37;97529.38;;;13.79;100.00
967;BME280;56108;48.730;9.304;2022-10-16T05:27:47;97510.91;;;13.76;100.00
967;BME280;56108;48.730;9.304;2022-10-16T05:29:56;97513.97;;;13.92;100.00
967;BME280;56108;48.730;9.304;2022-10-16T05:32:08;97512.69;;;13.87;100.00
967;BME280;56108;48.730;9.304;2022-10-16T05:34:16;97512.22;;;13.81;100.00
967;BME280;56108;48.730;9.304;2022-10-16T05:36:24;97514.66;;;13.84;100.00
967;BME280;56108;48.730;9.304;2022-10-16T05:38:33;97519.25;;;13.82;100.00
967;BME280;56108;48.730;9.304;2022-10-16T05:40:43;97527.94;;;13.75;100.00
967;BME280;56108;48.730;9.304;2022-10-16T05:42:55;97524.28;;;13.76;100.00
967;BME280;56108;48.730;9.304;2022-10-16T05:45:06;97523.50;;;13.85;100.00
967;BME280;56108;48.730;9.304;2022-10-16T05:47:17;97526.38;;;13.93;100.00
967;BME280;56108;48.730;9.304;2022-10-16T05:49:26;97539.19;;;13.90;100.00
967;BME280;56108;48.730;9.304;2022-10-16T05:51:34;97538.13;;;13.81;100.00
967;BME280;56108;48.730;9.304;2022-10-16T05:53:42;97538.88;;;13.72;100.00
967;BME280;56108;48.730;9.304;2022-10-16T05:55:52;97535.03;;;13.65;100.00
967;BME280;56108;48.730;9.304;2022-10-16T05:58:00;97525.56;;;13.61;100.00
967;BME280;56108;48.730;9.304;2022-10-16T06:00:10;97528.50;;;13.57;100.00
967;BME280;56108;48.730;9.304;2022-10-16T06:02:21;97521.88;;;13.62;100.00
967;BME280;56108;48.730;9.304;2022-10-16T06:04:30;97523.94;;;13.69;100.00
967;BME280;56108;48.730;9.304;2022-10-16T06:06:38;97535.50;;;13.70;100.00
967;BME280;56108;48.730;9.304;2022-10-16T06:08:47;97537.50;;;13.77;100.00
967;BME280;56108;48.730;9.304;2022-10-16T06:11:01;97541.78;;;13.80;100.00
967;BME280;56108;48.730;9.304;2022-10-16T06:13:11;97547.44;;;13.87;100.00
967;BME280;56108;48.730;9.304;2022-10-16T06:15:19;97549.38;;;13.96;100.00
967;BME280;56108;48.730;9.304;2022-10-16T06:17:30;97551.00;;;14.08;100.00
967;BME280;56108;48.730;9.304;2022-10-16T06:19:38;97562.22;;;14.02;100.00
967;BME280;56108;48.730;9.304;2022-10-16T06:21:46;97563.66;;;14.06;100.00
967;BME280;56108;48.730;9.304;2022-10-16T06:23:56;97566.03;;;14.20;100.00
967;BME280;56108;48.730;9.304;2022-10-16T06:26:06;97579.66;;;14.38;100.00
967;BME280;56108;48.730;9.304;2022-10-16T06:28:15;97588.41;;;14.40;100.00
967;BME280;56108;48.730;9.304;2022-10-16T06:30:23;97599.25;;;14.39;100.00
967;BME280;56108;48.730;9.304;2022-10-16T06:32:34;97605.78;;;14.46;100.00
967;BME280;56108;48.730;9.304;2022-10-16T06:34:43;97603.53;;;14.41;100.00
967;BME280;56108;48.730;9.304;2022-10-16T06:36:51;97601.66;;;14.53;100.00
967;BME280;56108;48.730;9.304;2022-10-16T06:39:00;97607.72;;;14.55;100.00
967;BME280;56108;48.730;9.304;2022-10-16T06:41:11;97606.03;;;14.54;100.00
967;BME280;56108;48.730;9.304;2022-10-16T06:43:20;97600.44;;;14.67;100.00
967;BME280;56108;48.730;9.304;2022-10-16T06:45:29;97601.78;;;14.72;100.00
967;BME280;56108;48.730;9.304;2022-10-16T06:47:40;97619.31;;;14.86;100.00
967;BME280;56108;48.730;9.304;2022-10-16T06:49:49;97626.03;;;15.01;100.00
967;BME280;56108;48.730;9.304;2022-10-16T06:51:58;97631.69;;;14.98;100.00
967;BME280;56108;48.730;9.304;2022-10-16T06:54:07;97635.81;;;15.12;100.00
967;BME280;56108;48.730;9.304;2022-10-16T06:56:17;97647.69;;;15.09;100.00
967;BME280;56108;48.730;9.304;2022-10-16T06:58:25;97637.88;;;14.99;100.00
967;BME280;56108;48.730;9.304;2022-10-16T07:00:34;97646.22;;;15.05;100.00
967;BME280;56108;48.730;9.304;2022-10-16T07:02:45;97649.53;;;15.19;100.00
967;BME280;56108;48.730;9.304;2022-10-16T07:04:53;97648.63;;;15.08;100.00
967;BME280;56108;48.730;9.304;2022-10-16T07:07:02;97657.72;;;15.17;100.00
967;BME280;56108;48.730;9.304;2022-10-16T07:09:13;97656.63;;;15.29;100.00
967;BME280;56108;48.730;9.304;2022-10-16T07:11:23;97664.78;;;15.18;100.00
967;BME280;56108;48.730;9.304;2022-10-16T07:13:33;97669.88;;;15.21;100.00
967;BME280;56108;48.730;9.304;2022-10-16T07:15:41;97662.56;;;15.02;100.00
967;BME280;56108;48.730;9.304;2022-10-16T07:17:52;97671.13;;;15.17;100.00
967;BME280;56108;48.730;9.304;2022-10-16T07:20:00;97670.97;;;15.19;100.00
967;BME280;56108;48.730;9.304;2022-10-16T07:22:09;97666.16;;;15.12;100.00
967;BME280;56108;48.730;9.304;2022-10-16T07:24:19;97679.22;;;15.27;100.00
967;BME280;56108;48.730;9.304;2022-10-16T07:26:28;97682.56;;;15.19;100.00
967;BME280;56108;48.730;9.304;2022-10-16T07:28:38;97691.88;;;15.15;100.00
967;BME280;56108;48.730;9.304;2022-10-16T07:30:46;97690.03;;;15.16;100.00
967;BME280;56108;48.730;9.304;2022-10-16T07:32:57;97691.03;;;15.24;100.00
967;BME280;56108;48.730;9.304;2022-10-16T07:35:07;97699.22;;;15.23;100.00
967;BME280;56108;48.730;9.304;2022-10-16T07:37:18;97700.13;;;15.33;100.00
967;BME280;56108;48.730;9.304;2022-10-16T07:39:31;97710.41;;;15.28;100.00
967;BME280;56108;48.730;9.304;2022-10-16T07:41:39;97717.69;;;15.47;100.00
967;BME280;56108;48.730;9.304;2022-10-16T07:43:48;97719.88;;;15.32;100.00
967;BME280;56108;48.730;9.304;2022-10-16T07:45:57;97722.47;;;15.43;100.00
967;BME280;56108;48.730;9.304;2022-10-16T07:48:13;97719.81;;;15.22;100.00
967;BME280;56108;48.730;9.304;2022-10-16T07:50:21;97722.47;;;15.43;100.00
967;BME280;56108;48.730;9.304;2022-10-16T07:52:29;97723.22;;;15.24;100.00
967;BME280;56108;48.730;9.304;2022-10-16T07:54:37;97722.16;;;15.36;100.00
967;BME280;56108;48.730;9.304;2022-10-16T07:56:46;97719.50;;;15.36;100.00
967;BME280;56108;48.730;9.304;2022-10-16T07:58:54;97723.19;;;15.45;100.00
967;BME280;56108;48.730;9.304;2022-10-16T08:01:04;97729.88;;;15.51;100.00
967;BME280;56108;48.730;9.304;2022-10-16T08:03:17;97730.38;;;15.65;100.00
967;BME280;56108;48.730;9.304;2022-10-16T08:05:25;97737.81;;;15.62;100.00
967;BME280;56108;48.730;9.304;2022-10-16T08:07:34;97735.03;;;15.63;100.00
967;BME280;56108;48.730;9.304;2022-10-16T08:09:42;97735.53;;;15.57;100.00
967;BME280;56108;48.730;9.304;2022-10-16T08:11:51;97740.63;;;15.60;100.00
967;BME280;56108;48.730;9.304;2022-10-16T08:14:05;97741.31;;;15.83;100.00
967;BME280;56108;48.730;9.304;2022-10-16T08:16:15;97743.06;;;15.94;100.00
967;BME280;56108;48.730;9.304;2022-10-16T08:18:27;97746.94;;;16.21;100.00
967;BME280;56108;48.730;9.304;2022-10-16T08:20:36;97748.56;;;16.02;100.00
967;BME280;56108;48.730;9.304;2022-10-16T08:22:44;97758.28;;;16.43;100.00
967;BME280;56108;48.730;9.304;2022-10-16T08:24:54;97752.59;;;16.27;100.00
967;BME280;56108;48.730;9.304;2022-10-16T08:27:03;97760.72;;;16.66;100.00
967;BME280;56108;48.730;9.304;2022-10-16T08:29:13;97755.16;;;16.29;100.00
967;BME280;56108;48.730;9.304;2022-10-16T08:31:22;97759.19;;;16.73;100.00
967;BME280;56108;48.730;9.304;2022-10-16T08:33:35;97763.72;;;16.73;100.00
967;BME280;56108;48.730;9.304;2022-10-16T08:35:50;97767.94;;;16.56;100.00
967;BME280;56108;48.730;9.304;2022-10-16T08:37:59;97765.44;;;16.93;100.00
967;BME280;56108;48.730;9.304;2022-10-16T08:40:17;97766.25;;;17.13;100.00
967;BME280;56108;48.730;9.304;2022-10-16T08:42:42;97775.44;;;17.10;99.00
967;BME280;56108;48.730;9.304;2022-10-16T08:47:26;97787.03;;;17.40;96.34
967;BME280;56108;48.730;9.304;2022-10-16T08:49:52;97783.06;;;17.44;96.37
967;BME280;56108;48.730;9.304;2022-10-16T08:52:03;97778.34;;;17.56;95.88
967;BME280;56108;48.730;9.304;2022-10-16T08:54:21;97785.25;;;17.68;94.60
967;BME280;56108;48.730;9.304;2022-10-16T08:58:39;97789.28;;;18.01;93.03
967;BME280;56108;48.730;9.304;2022-10-16T09:00:51;97787.31;;;17.37;94.21
967;BME280;56108;48.730;9.304;2022-10-16T09:03:10;97777.13;;;17.40;96.82
967;BME280;56108;48.730;9.304;2022-10-16T09:05:34;97797.03;;;17.57;95.45
967;BME280;56108;48.730;9.304;2022-10-16T09:07:50;97800.81;;;17.17;97.57
967;BME280;56108;48.730;9.304;2022-10-16T09:10:34;97801.22;;;17.03;100.00
967;BME280;56108;48.730;9.304;2022-10-16T09:12:52;97802.19;;;17.31;99.91
967;BME280;56108;48.730;9.304;2022-10-16T09:15:14;97810.34;;;18.06;97.03
967;BME280;56108;48.730;9.304;2022-10-16T09:17:34;97815.91;;;18.87;90.99
967;BME280;56108;48.730;9.304;2022-10-16T09:19:52;97806.56;;;18.81;89.04
967;BME280;56108;48.730;9.304;2022-10-16T09:22:11;97801.19;;;18.54;88.82
967;BME280;56108;48.730;9.304;2022-10-16T09:24:25;97796.88;;;18.70;88.46
967;BME280;56108;48.730;9.304;2022-10-16T09:26:34;97799.47;;;18.98;87.53
967;BME280;56108;48.730;9.304;2022-10-16T09:28:42;97794.69;;;18.74;88.49
967;BME280;56108;48.730;9.304;2022-10-16T09:30:51;97805.31;;;19.29;86.09
967;BME280;56108;48.730;9.304;2022-10-16T09:33:00;97814.31;;;19.73;81.89
967;BME280;56108;48.730;9.304;2022-10-16T09:35:14;97822.56;;;19.54;81.73
967;BME280;56108;48.730;9.304;2022-10-16T09:37:25;97819.63;;;19.91;80.47
967;BME280;56108;48.730;9.304;2022-10-16T09:39:44;97820.78;;;19.63;80.46
967;BME280;56108;48.730;9.304;2022-10-16T09:41:55;97816.66;;;19.76;79.13
967;BME280;56108;48.730;9.304;2022-10-16T09:44:05;97819.50;;;19.49;80.92
967;BME280;56108;48.730;9.304;2022-10-16T09:46:24;97836.22;;;21.72;72.50
967;BME280;56108;48.730;9.304;2022-10-16T09:48:36;97840.09;;;22.50;66.66
967;BME280;56108;48.730;9.304;2022-10-16T09:50:55;97831.94;;;21.94;69.62
967;BME280;56108;48.730;9.304;2022-10-16T09:53:11;97824.28;;;21.98;69.21
967;BME280;56108;48.730;9.304;2022-10-16T09:55:19;97829.41;;;21.84;69.80
967;BME280;56108;48.730;9.304;2022-10-16T09:57:28;97833.47;;;22.91;66.90
967;BME280;56108;48.730;9.304;2022-10-16T09:59:45;97843.84;;;24.17;61.07
967;BME280;56108;48.730;9.304;2022-10-16T10:01:54;97842.50;;;22.84;60.10
967;BME280;56108;48.730;9.304;2022-10-16T10:04:06;97844.16;;;22.93;60.93
967;BME280;56108;48.730;9.304;2022-10-16T10:06:18;97846.25;;;23.60;59.81
967;BME280;56108;48.730;9.304;2022-10-16T10:08:30;97869.16;;;24.92;55.03
967;BME280;56108;48.730;9.304;2022-10-16T10:10:42;97878.38;;;26.13;51.94
967;BME280;56108;48.730;9.304;2022-10-16T10:12:50;97880.94;;;26.42;51.64
967;BME280;56108;48.730;9.304;2022-10-16T10:15:05;97900.38;;;26.33;49.72
967;BME280;56108;48.730;9.304;2022-10-16T10:17:17;97900.66;;;27.14;47.60
967;BME280;56108;48.730;9.304;2022-10-16T10:19:27;97883.78;;;25.06;52.42
967;BME280;56108;48.730;9.304;2022-10-16T10:21:38;97856.03;;;23.23;56.99
967;BME280;56108;48.730;9.304;2022-10-16T10:23:57;97848.97;;;22.35;62.63
967;BME280;56108;48.730;9.304;2022-10-16T10:26:10;97850.22;;;21.92;64.23
967;BME280;56108;48.730;9.304;2022-10-16T10:30:55;97834.25;;;22.69;65.45
967;BME280;56108;48.730;9.304;2022-10-16T10:33:24;97855.63;;;23.95;58.86
967;BME280;56108;48.730;9.304;2022-10-16T10:35:42;97872.41;;;24.66;55.15
967;BME280;56108;48.730;9.304;2022-10-16T10:38:02;97861.88;;;24.33;56.40
967;BME280;56108;48.730;9.304;2022-10-16T10:40:27;97862.78;;;23.73;57.02
967;BME280;56108;48.730;9.304;2022-10-16T10:42:44;97858.09;;;23.44;57.52
967;BME280;56108;48.730;9.304;2022-10-16T10:45:23;97858.59;;;23.16;57.64
967;BME280;56108;48.730;9.304;2022-10-16T10:47:41;97850.44;;;22.94;58.57
967;BME280;56108;48.730;9.304;2022-10-16T10:50:00;97841.63;;;21.64;64.10
967;BME280;56108;48.730;9.304;2022-10-16T10:52:26;97849.25;;;21.60;67.17
967;BME280;56108;48.730;9.304;2022-10-16T10:54:45;97840.63;;;21.32;69.23
967;BME280;56108;48.730;9.304;2022-10-16T10:57:03;97842.25;;;21.17;69.52
967;BME280;56108;48.730;9.304;2022-10-16T10:59:35;97836.66;;;20.94;72.67
967;BME280;56108;48.730;9.304;2022-10-16T11:01:50;97837.94;;;20.31;76.03
967;BME280;56108;48.730;9.304;2022-10-16T11:04:23;97833.88;;;20.01;78.14
967;BME280;56108;48.730;9.304;2022-10-16T11:06:40;97829.41;;;20.18;78.04
967;BME280;56108;48.730;9.304;2022-10-16T11:08:53;97831.25;;;20.18;76.68
967;BME280;56108;48.730;9.304;2022-10-16T11:11:08;97833.28;;;20.16;76.50
967;BME280;56108;48.730;9.304;2022-10-16T11:13:36;97831.91;;;20.12;75.05
967;BME280;56108;48.730;9.304;2022-10-16T11:15:48;97837.09;;;20.31;76.14
967;BME280;56108;48.730;9.304;2022-10-16T11:18:04;97831.50;;;20.32;75.78
967;BME280;56108;48.730;9.304;2022-10-16T11:20:16;97829.13;;;20.29;75.58
967;BME280;56108;48.730;9.304;2022-10-16T11:24:45;97834.75;;;20.36;71.31
967;BME280;56108;48.730;9.304;2022-10-16T11:26:55;97824.16;;;20.51;70.84
967;BME280;56108;48.730;9.304;2022-10-16T11:29:12;97820.47;;;20.52;70.72
967;BME280;56108;48.730;9.304;2022-10-16T11:31:28;97822.53;;;20.58;71.25
967;BME280;56108;48.730;9.304;2022-10-16T11:33:41;97825.53;;;20.47;71.59
967;BME280;56108;48.730;9.304;2022-10-16T11:35:53;97821.81;;;20.48;73.03
967;BME280;56108;48.730;9.304;2022-10-16T11:38:10;97818.38;;;20.46;72.80
967;BME280;56108;48.730;9.304;2022-10-16T11:40:24;97820.84;;;20.65;71.58
967;BME280;56108;48.730;9.304;2022-10-16T11:42:41;97828.16;;;20.81;70.76
967;BME280;56108;48.730;9.304;2022-10-16T11:44:57;97823.63;;;20.90;70.01
967;BME280;56108;48.730;9.304;2022-10-16T11:47:15;97828.31;;;20.79;67.90
967;BME280;56108;48.730;9.304;2022-10-16T11:49:50;97819.34;;;20.71;68.66
967;BME280;56108;48.730;9.304;2022-10-16T11:52:05;97814.06;;;20.61;69.75
967;BME280;56108;48.730;9.304;2022-10-16T11:54:27;97814.22;;;20.59;70.92
967;BME280;56108;48.730;9.304;2022-10-16T11:56:38;97818.16;;;20.73;71.26
967;BME280;56108;48.730;9.304;2022-10-16T11:58:54;97820.38;;;20.78;70.54
967;BME280;56108;48.730;9.304;2022-10-16T12:01:17;97826.31;;;20.90;66.74